Orchid Ace — 7JDE — position and weather

sailwx.info

Track history (hours):
 
Tides and Currents Weather Stations Pressure Air Temp Water Temp Dewpoint Dewpoint Depression Visibility Wind Speed Wind Dir Waves Ship Positions

Orchid Ace

Last reported at 2016-Aug-26 22:32 UTC. Time now 2016-Aug-27 02:57 UTC.
Position N 24°01' E 118°39'.

Length 200 m; draft 8.3 m.

Type: Cargo ship. MMSI: 432651000.

Date/timePositionNaut miles runAvg speedWind from/ knotsBaromVisibWave heightAir tempDewpointWater temp
2016-Aug-26 22:32N 24°01' E 118°39'1818.7
2016-Aug-26 21:33N 23°49' E 118°24'2018.9
2016-Aug-26 20:31N 23°36' E 118°08'2519.6
2016-Aug-26 19:14N 23°21' E 117°46'19918.6
2016-Aug-26 08:33N 22°01' E 114°29'3816.6
2016-Aug-26 06:17N 22°06' E 113°49'45 7.2
2016-Aug-26 00:04N 22°49' E 113°36'5 9.9
2016-Aug-25 23:33N 22°54' E 113°34'7 5.9
2016-Aug-25 22:22N 23°01' E 113°32'0 0.0
2016-Aug-25 21:28N 23°01' E 113°32'0 0.0
2016-Aug-25 20:28N 23°01' E 113°32'0 0.0
2016-Aug-25 19:28N 23°01' E 113°32'0 0.0
2016-Aug-25 18:28N 23°01' E 113°32'0 0.0
2016-Aug-25 17:22N 23°01' E 113°32'0 0.0
2016-Aug-25 16:22N 23°01' E 113°32'0 0.0
2016-Aug-25 15:28N 23°01' E 113°32'0 0.0
2016-Aug-25 14:28N 23°01' E 113°32'0 0.1
2016-Aug-25 13:33N 23°01' E 113°32'7 7.2
2016-Aug-25 12:33N 22°54' E 113°34'11 9.7
2016-Aug-25 11:27N 22°44' E 113°40'1713.4
2016-Aug-25 10:11N 22°28' E 113°45'914.7
2016-Aug-25 09:33N 22°19' E 113°48'1312.6
2016-Aug-25 08:33N 22°07' E 113°49'22 3.4
2016-Aug-25 02:04N 22°20' E 114°08'0 0.0
2016-Aug-24 23:28N 22°20' E 114°08'16 5.3
2016-Aug-24 20:29N 22°08' E 114°19'  
2016-Aug-21 11:15N 01°15' E 104°08'1217.3
2016-Aug-21 10:33N 01°13' E 103°56'1010.2
2016-Aug-21 09:34N 01°15' E 103°46'2 1.5
2016-Aug-21 08:21N 01°17' E 103°45'0 0.0
2016-Aug-21 07:30N 01°17' E 103°45'0 0.0
2016-Aug-21 04:33N 01°17' E 103°45'0 0.0
2016-Aug-21 03:30N 01°17' E 103°45'0 0.0
2016-Aug-21 02:30N 01°17' E 103°45'0 0.0
2016-Aug-21 01:33N 01°17' E 103°45'8 2.6
2016-Aug-20 22:25N 01°14' E 103°53'3 3.1
2016-Aug-20 21:23N 01°16' E 103°54'0 0.0
2016-Aug-20 20:32N 01°16' E 103°54'0 0.0
2016-Aug-20 19:29N 01°16' E 103°54'0 0.0
2016-Aug-20 18:11N 01°16' E 103°54'0 0.0
2016-Aug-20 17:17N 01°16' E 103°54'0 0.0
2016-Aug-20 12:17N 01°16' E 103°54'0 0.0
2016-Aug-20 11:20N 01°16' E 103°54'0 0.0
2016-Aug-20 10:23N 01°16' E 103°54'2 3.0
2016-Aug-20 09:33N 01°14' E 103°54'8 7.6
2016-Aug-20 08:33N 01°09' E 103°48'6211.7
2016-Aug-20 03:13N 01°36' E 102°51'2119.2
2016-Aug-20 02:07N 01°46' E 102°32'1119.4
2016-Aug-20 01:32N 01°51' E 102°22'  
Track history (hours):
 
Tides and Currents Weather Stations Pressure Air Temp Water Temp Dewpoint Dewpoint Depression Visibility Wind Speed Wind Dir Waves Ship Positions

Orchid Ace

Last reported at 2016-Aug-26 22:32 UTC. Time now 2016-Aug-27 02:57 UTC.
Position N 24°01' E 118°39'.

Length 200 m; draft 8.3 m.

Type: Cargo ship. MMSI: 432651000.

Date/timePositionNaut miles runAvg speedWind from/ knotsBaromVisibWave heightAir tempDewpointWater temp
2016-Aug-26 22:32N 24°01' E 118°39'1818.7
2016-Aug-26 21:33N 23°49' E 118°24'2018.9
2016-Aug-26 20:31N 23°36' E 118°08'2519.6
2016-Aug-26 19:14N 23°21' E 117°46'19918.6
2016-Aug-26 08:33N 22°01' E 114°29'3816.6
2016-Aug-26 06:17N 22°06' E 113°49'45 7.2
2016-Aug-26 00:04N 22°49' E 113°36'5 9.9
2016-Aug-25 23:33N 22°54' E 113°34'7 5.9
2016-Aug-25 22:22N 23°01' E 113°32'0 0.0
2016-Aug-25 21:28N 23°01' E 113°32'0 0.0
2016-Aug-25 20:28N 23°01' E 113°32'0 0.0
2016-Aug-25 19:28N 23°01' E 113°32'0 0.0
2016-Aug-25 18:28N 23°01' E 113°32'0 0.0
2016-Aug-25 17:22N 23°01' E 113°32'0 0.0
2016-Aug-25 16:22N 23°01' E 113°32'0 0.0
2016-Aug-25 15:28N 23°01' E 113°32'0 0.0
2016-Aug-25 14:28N 23°01' E 113°32'0 0.1
2016-Aug-25 13:33N 23°01' E 113°32'7 7.2
2016-Aug-25 12:33N 22°54' E 113°34'11 9.7
2016-Aug-25 11:27N 22°44' E 113°40'1713.4
2016-Aug-25 10:11N 22°28' E 113°45'914.7
2016-Aug-25 09:33N 22°19' E 113°48'1312.6
2016-Aug-25 08:33N 22°07' E 113°49'22 3.4
2016-Aug-25 02:04N 22°20' E 114°08'0 0.0
2016-Aug-24 23:28N 22°20' E 114°08'16 5.3
2016-Aug-24 20:29N 22°08' E 114°19'  
2016-Aug-21 11:15N 01°15' E 104°08'1217.3
2016-Aug-21 10:33N 01°13' E 103°56'1010.2
2016-Aug-21 09:34N 01°15' E 103°46'2 1.5
2016-Aug-21 08:21N 01°17' E 103°45'0 0.0
2016-Aug-21 07:30N 01°17' E 103°45'0 0.0
2016-Aug-21 04:33N 01°17' E 103°45'0 0.0
2016-Aug-21 03:30N 01°17' E 103°45'0 0.0
2016-Aug-21 02:30N 01°17' E 103°45'0 0.0
2016-Aug-21 01:33N 01°17' E 103°45'8 2.6
2016-Aug-20 22:25N 01°14' E 103°53'3 3.1
2016-Aug-20 21:23N 01°16' E 103°54'0 0.0
2016-Aug-20 20:32N 01°16' E 103°54'0 0.0
2016-Aug-20 19:29N 01°16' E 103°54'0 0.0
2016-Aug-20 18:11N 01°16' E 103°54'0 0.0
2016-Aug-20 17:17N 01°16' E 103°54'0 0.0
2016-Aug-20 12:17N 01°16' E 103°54'0 0.0
2016-Aug-20 11:20N 01°16' E 103°54'0 0.0
2016-Aug-20 10:23N 01°16' E 103°54'2 3.0
2016-Aug-20 09:33N 01°14' E 103°54'8 7.6
2016-Aug-20 08:33N 01°09' E 103°48'6211.7
2016-Aug-20 03:13N 01°36' E 102°51'2119.2
2016-Aug-20 02:07N 01°46' E 102°32'1119.4
2016-Aug-20 01:32N 01°51' E 102°22'  

Dump ship's entire track history